Terminal Aerodrome Forecast
Issued by NWS Pendleton, OR

Home | Current Version | Previous Version | Text Only | Print | Product List | Glossary On
Versions: 1 2 3 4 5 6 7 8 9 10 11 12 13 14 15 16 17 18
000
FTUS46 KPDT 252320
TAFPDT
TAF
KPDT 252320Z 2600/2624 22007KT P6SM SCT050
     FM260400 22007KT P6SM VCSH SCT050 BKN120
     FM260700 16007KT P6SM FEW030 SCT070 BKN150
     FM261200 18005KT P6SM SCT030 SCT070 BKN150
     FM261500 21006KT P6SM SCT030 BKN070 OVC150
     FM261800 26008KT P6SM SCT050 BKN150=

USA.gov is the U.S. government's official web portal to all federal, state and local government web resources and services.